Flight Track Log - Related Links

Times and Time Zones

All times are in EDT time to prevent confusion due to time zone crossing. See the KLM1692 flight status page for this flight to view local times or setup timezone preferences in your user account.

Time Position Orientation Groundspeed Altitude Reporting Facility
EDT Latitude Longitude Course Direction KTS MPH feet Rate Location/Type
Thu 01:41:26 AM 38.8100 -9.1200 24° Northeast 174 200 1,900  Level FlightAware ADS-B
Thu 01:41:46 AM 38.8250 -9.1110 25° Northeast 170 196 2,700 2,200 Climbing FlightAware ADS-B
Thu 01:41:56 AM 38.8320 -9.1050 34° Northeast 180 207 3,000 1,920 Climbing FlightAware ADS-B
Thu 01:42:11 AM 38.8410 -9.0940 44° Northeast 187 215 3,500 1,067 Climbing FlightAware ADS-B
Thu 01:42:41 AM 38.8630 -9.0660 45° Northeast 246 283 3,800 1,294 Climbing FlightAware ADS-B
Thu 01:43:02 AM 38.8800 -9.0450 44° Northeast 253 291 4,600 2,488 Climbing FlightAware ADS-B
Thu 01:43:22 AM 38.8970 -9.0230 45° Northeast 260 299 5,500 3,000 Climbing FlightAware ADS-B
Thu 01:43:36 AM 38.9110 -9.0070 42° Northeast 271 312 6,300 3,200 Climbing FlightAware ADS-B
Thu 01:44:07 AM 38.9390 -8.9730 43° Northeast 268 308 7,900 3,120 Climbing FlightAware ADS-B
Thu 01:44:26 AM 38.9570 -8.9490 46° Northeast 276 318 8,900 2,923 Climbing FlightAware ADS-B
Thu 01:44:46 AM 38.9750 -8.9260 45° Northeast 275 316 9,800 2,073 Climbing FlightAware ADS-B
Thu 01:45:21 AM 39.0100 -8.8820 44° Northeast 315 362 10,800 1,286 Climbing FlightAware ADS-B
Thu 01:45:56 AM 39.0480 -8.8340 44° Northeast 358 412 11,300 1,286 Climbing FlightAware ADS-B
Thu 01:46:31 AM 39.0920 -8.7800 44° Northeast 381 438 12,300 1,971 Climbing FlightAware ADS-B
Thu 01:47:06 AM 39.1370 -8.7230 44° Northeast 386 444 13,600 2,486 Climbing FlightAware ADS-B
Thu 01:47:41 AM 39.1830 -8.6650 44° Northeast 388 447 15,200 2,640 Climbing FlightAware ADS-B
Thu 01:47:56 AM 39.2030 -8.6410 43° Northeast 388 447 15,800 2,280 Climbing FlightAware ADS-B
Thu 01:48:31 AM 39.2480 -8.5830 45° Northeast 395 455 17,100 2,057 Climbing FlightAware ADS-B
Thu 01:49:06 AM 39.2960 -8.5220 45° Northeast 407 468 18,200 1,909 Climbing FlightAware ADS-B
Thu 01:49:37 AM 39.3350 -8.4720 45° Northeast 411 473 19,200 1,895 Climbing FlightAware ADS-B
Thu 01:50:22 AM 39.3980 -8.3920 44° Northeast 413 475 20,600 1,823 Climbing FlightAware ADS-B
Thu 01:50:56 AM 39.4460 -8.3320 44° Northeast 419 482 21,600 1,714 Climbing FlightAware ADS-B
Thu 01:51:32 AM 39.4980 -8.2650 45° Northeast 429 494 22,600 1,606 Climbing FlightAware ADS-B
Thu 01:52:07 AM 39.5460 -8.2030 45° Northeast 434 499 23,500 1,418 Climbing FlightAware ADS-B
Thu 01:52:27 AM 39.5760 -8.1660 44° Northeast 434 499 23,900 1,200 Climbing FlightAware ADS-B
Thu 01:53:02 AM 39.6260 -8.1010 45° Northeast 440 506 24,600 1,200 Climbing FlightAware ADS-B
Thu 01:53:37 AM 39.6780 -8.0340 45° Northeast 450 518 25,300 1,286 Climbing FlightAware ADS-B
Thu 01:54:12 AM 39.7300 -7.9670 45° Northeast 451 519 26,100 1,760 Climbing FlightAware ADS-B
Thu 01:54:52 AM 39.7890 -7.8910 45° Northeast 435 501 27,500 1,971 Climbing FlightAware ADS-B
Thu 01:55:22 AM 39.8330 -7.8330 45° Northeast 435 501 28,400 1,800 Climbing FlightAware ADS-B
Thu 01:56:02 AM 39.8890 -7.7600 45° Northeast 420 483 29,600 1,371 Climbing FlightAware ADS-B
Thu 01:56:32 AM 39.9310 -7.7060 45° Northeast 417 480 30,000 343 Climbing FlightAware ADS-B
Thu 01:57:12 AM 39.9860 -7.6340 45° Northeast 417 480 30,000  Level FlightAware ADS-B
Thu 01:57:42 AM 40.0260 -7.5810 45° Northeast 416 479 30,000  Level FlightAware ADS-B
Thu 01:58:17 AM 40.0760 -7.5140 46° Northeast 415 478 30,000  Level FlightAware ADS-B
Thu 01:58:52 AM 40.1230 -7.4530 45° Northeast 415 478 30,000  Level FlightAware ADS-B
Thu 01:59:19 AM 40.1600 -7.4060 44° Northeast 415 478 30,000  Level FlightAware ADS-B
Thu 01:59:58 AM 40.2120 -7.3360 46° Northeast 414 476 30,000  Level FlightAware ADS-B
Thu 02:00:18 AM 40.2420 -7.2960 45° Northeast 419 482 30,000  Level FlightAware ADS-B
Thu 02:00:53 AM 40.2870 -7.2360 45° Northeast 414 476 30,000  Level FlightAware ADS-B
Thu 02:01:29 AM 40.3360 -7.1730 44° Northeast 414 476 30,000  Level FlightAware ADS-B
Thu 02:02:03 AM 40.3820 -7.1110 46° Northeast 420 483 30,000  Level FlightAware ADS-B
Thu 02:02:38 AM 40.4320 -7.0440 46° Northeast 415 478 30,000  Level FlightAware ADS-B
Thu 02:03:22 AM 40.4930 -6.9620 46° Northeast 421 484 30,000  Level FlightAware ADS-B
Thu 02:03:42 AM 40.5200 -6.9270 45° Northeast 422 486 30,000  Level FlightAware ADS-B
Thu 02:03:50 AM 40.5310 -6.9130 44° Northeast 422 486 30,000  Level FlightAware ADS-B
Thu 02:04:25 AM 40.5770 -6.8500 46° Northeast 422 486 30,000  Level FlightAware ADS-B
Thu 02:04:59 AM 40.6250 -6.7860 45° Northeast 424 488 30,000  Level FlightAware ADS-B
Thu 02:05:35 AM 40.6710 -6.7230 46° Northeast 423 487 30,000  Level FlightAware ADS-B
Thu 02:06:09 AM 40.7210 -6.6560 45° Northeast 422 486 30,000  Level FlightAware ADS-B
Thu 02:06:39 AM 40.7620 -6.6010 45° Northeast 422 486 30,000  Level FlightAware ADS-B
Thu 02:07:09 AM 40.8010 -6.5470 46° Northeast 422 486 30,000  Level FlightAware ADS-B
Thu 02:07:49 AM 40.8570 -6.4720 45° Northeast 422 486 30,000  Level FlightAware ADS-B
Thu 02:08:24 AM 40.9040 -6.4070 46° Northeast 420 483 30,000  Level FlightAware ADS-B
Thu 02:08:55 AM 40.9450 -6.3520 45° Northeast 418 481 30,000  Level FlightAware ADS-B
Thu 02:09:29 AM 40.9920 -6.2890 45° Northeast 417 480 30,000  Level FlightAware ADS-B
Thu 02:10:06 AM 41.0420 -6.2280 43° Northeast 416 479 30,000  Level FlightAware ADS-B
Thu 02:10:44 AM 41.1000 -6.1590 42° Northeast 417 480 30,000  Level FlightAware ADS-B
Thu 02:11:18 AM 41.1430 -6.1080 42° Northeast 418 481 30,000  Level FlightAware ADS-B
Thu 02:11:49 AM 41.1930 -6.0480 42° Northeast 416 479 30,000  Level FlightAware ADS-B
Thu 02:12:26 AM 41.2430 -5.9880 42° Northeast 415 478 30,000  Level FlightAware ADS-B
Thu 02:13:04 AM 41.3000 -5.9190 42° Northeast 414 476 30,000  Level FlightAware ADS-B
Thu 02:13:34 AM 41.3430 -5.8680 42° Northeast 414 476 30,000  Level FlightAware ADS-B
Thu 02:14:09 AM 41.3920 -5.8080 43° Northeast 412 474 30,000  Level FlightAware ADS-B
Thu 02:14:49 AM 41.4480 -5.7410 42° Northeast 412 474 30,000  Level FlightAware ADS-B
Thu 02:15:19 AM 41.4910 -5.6880 43° Northeast 412 474 30,000  Level FlightAware ADS-B
Thu 02:15:59 AM 41.5520 -5.6300 35° Northeast 411 473 30,000  Level FlightAware ADS-B
Thu 02:16:29 AM 41.6040 -5.5980 25° Northeast 410 472 30,000  Level FlightAware ADS-B
Thu 02:17:09 AM 41.6740 -5.5590 23° Northeast 409 471 30,000  Level FlightAware ADS-B
Thu 02:17:39 AM 41.7270 -5.5290 23° Northeast 408 470 30,000  Level FlightAware ADS-B
Thu 02:18:19 AM 41.7960 -5.4890 23° Northeast 407 468 30,000  Level FlightAware ADS-B
Thu 02:18:54 AM 41.8570 -5.4550 23° Northeast 407 468 30,000  Level FlightAware ADS-B
Thu 02:19:24 AM 41.9100 -5.4260 22° Northeast 406 467 30,000  Level FlightAware ADS-B
Thu 02:20:04 AM 41.9770 -5.3870 23° Northeast 406 467 30,000  Level FlightAware ADS-B
Thu 02:20:34 AM 42.0290 -5.3570 23° Northeast 407 468 30,000  Level FlightAware ADS-B
Thu 02:21:09 AM 42.0910 -5.3220 23° Northeast 407 468 30,000  Level FlightAware ADS-B
Thu 02:21:49 AM 42.1590 -5.2830 23° Northeast 407 468 30,000  Level FlightAware ADS-B
Thu 02:22:19 AM 42.2110 -5.2530 23° Northeast 407 468 30,000  Level FlightAware ADS-B
Thu 02:22:54 AM 42.2720 -5.2180 23° Northeast 407 468 30,000  Level FlightAware ADS-B
Thu 02:23:34 AM 42.3430 -5.1770 23° Northeast 408 470 30,000  Level FlightAware ADS-B
Thu 02:24:04 AM 42.3880 -5.1510 23° Northeast 409 471 30,000  Level FlightAware ADS-B
Thu 02:24:44 AM 42.4650 -5.1060 23° Northeast 412 474 30,000  Level FlightAware ADS-B
Thu 02:25:19 AM 42.5260 -5.0710 23° Northeast 413 475 30,000  Level FlightAware ADS-B
Thu 02:25:49 AM 42.5730 -5.0440 23° Northeast 414 476 30,000  Level FlightAware ADS-B
Thu 02:26:24 AM 42.6400 -5.0050 23° Northeast 415 478 30,000  Level FlightAware ADS-B
Thu 02:26:59 AM 42.7000 -4.9700 23° Northeast 414 476 30,000  Level FlightAware ADS-B
Thu 02:27:33 AM 42.7620 -4.9330 24° Northeast 414 476 30,000  Level FlightAware ADS-B
Thu 02:28:12 AM 42.8330 -4.8910 23° Northeast 413 475 30,000  Level FlightAware ADS-B
Thu 02:28:48 AM 42.8920 -4.8570 23° Northeast 412 474 30,000  Level FlightAware ADS-B
Thu 02:29:27 AM 42.9640 -4.8140 24° Northeast 411 473 30,000  Level FlightAware ADS-B
Thu 02:30:03 AM 43.0240 -4.7790 23° Northeast 410 472 30,000  Level FlightAware ADS-B
Thu 02:30:37 AM 43.0840 -4.7430 24° Northeast 410 472 30,000  Level FlightAware ADS-B
Thu 02:31:12 AM 43.1460 -4.7070 23° Northeast 411 473 30,000  Level FlightAware ADS-B
Thu 02:31:52 AM 43.2170 -4.6640 24° Northeast 413 475 30,000  Level FlightAware ADS-B
Thu 02:32:32 AM 43.2840 -4.6240 23° Northeast 415 478 30,000  Level FlightAware ADS-B
Thu 02:33:07 AM 43.3460 -4.5870 23° Northeast 416 479 30,000  Level FlightAware ADS-B
Thu 02:33:39 AM 43.4010 -4.5540 24° Northeast 417 480 30,000  Level FlightAware ADS-B
Thu 02:34:17 AM 43.4700 -4.5130 23° Northeast 417 480 30,000  Level FlightAware ADS-B
Thu 02:34:52 AM 43.5330 -4.4760 23° Northeast 418 481 30,000  Level FlightAware ADS-B
Thu 02:35:23 AM 43.5860 -4.4420 25° Northeast 419 482 30,000  Level FlightAware ADS-B
Thu 02:36:04 AM 43.6580 -4.3990 23° Northeast 421 484 30,000  Level FlightAware ADS-B
Thu 02:36:35 AM 43.7130 -4.3670 23° Northeast 423 487 30,000  Level FlightAware ADS-B
Thu 02:37:12 AM 43.7840 -4.3230 24° Northeast 424 488 30,000  Level FlightAware ADS-B
Thu 02:37:47 AM 43.8410 -4.2880 24° Northeast 426 490 30,000  Level FlightAware ADS-B
Thu 02:38:27 AM 43.9190 -4.2400 24° Northeast 428 493 30,000  Level FlightAware ADS-B
Thu 02:39:04 AM 43.9820 -4.2010 24° Northeast 428 493 30,000  Level FlightAware ADS-B
Thu 02:39:38 AM 44.0310 -4.1620 30° Northeast 428 493 30,000  Level FlightAware ADS-B
Thu 02:40:15 AM 44.0850 -4.1190 30° Northeast 428 493 30,000  Level FlightAware ADS-B
Thu 02:40:52 AM 44.1390 -4.0760 30° Northeast 428 493 30,000  Level FlightAware ADS-B
Thu 02:41:29 AM 44.2210 -3.9730 42° Northeast 428 493 30,000  Level FlightAware ADS-B
Thu 02:42:21 AM 44.2930 -3.9010 36° Northeast 427 491 30,000  Level FlightAware ADS-B
Thu 02:42:57 AM 44.3420 -3.8530 35° Northeast 427 491 30,000  Level FlightAware ADS-B
Thu 02:43:34 AM 44.3930 -3.8030 35° Northeast 427 491 30,000  Level FlightAware ADS-B
Thu 02:44:11 AM 44.4440 -3.7530 35° Northeast 427 491 30,000  Level FlightAware ADS-B
Thu 02:44:46 AM 44.4920 -3.7060 35° Northeast 427 491 30,000  Level FlightAware ADS-B
Thu 02:45:22 AM 44.5420 -3.6570 35° Northeast 427 491 30,000  Level FlightAware ADS-B
Thu 02:45:58 AM 44.5910 -3.6080 35° Northeast 427 491 30,000  Level FlightAware ADS-B
Thu 02:46:30 AM 44.7060 -3.4950 35° Northeast 429 494 30,000  Level FlightAware ADS-B
Thu 02:47:10 AM 44.7730 -3.4280 35° Northeast 430 495 30,000  Level FlightAware ADS-B
Thu 02:47:45 AM 44.8290 -3.3720 35° Northeast 430 495 30,000  Level FlightAware ADS-B
Thu 02:48:25 AM 44.8940 -3.3060 36° Northeast 431 496 30,000  Level FlightAware ADS-B
Thu 02:49:00 AM 44.9470 -3.2540 35° Northeast 433 498 30,000  Level FlightAware ADS-B
Thu 02:49:30 AM 45.0020 -3.1980 36° Northeast 434 499 30,000  Level FlightAware ADS-B
Thu 02:50:11 AM 45.0600 -3.1410 35° Northeast 434 499 30,000  Level FlightAware ADS-B
Thu 02:50:47 AM 45.1100 -3.0910 35° Northeast 434 499 30,000  Level FlightAware ADS-B
Thu 02:51:20 AM 45.1820 -3.0160 36° Northeast 437 503 30,000  Level FlightAware ADS-B
Thu 02:51:50 AM 45.2280 -2.9690 36° Northeast 438 504 30,000  Level FlightAware ADS-B
Thu 02:52:38 AM 45.3020 -2.8950 35° Northeast 439 505 30,000  Level FlightAware ADS-B
Thu 02:53:19 AM 45.3170 -2.8800 35° Northeast 439 505 30,000  Level FlightAware ADS-B
Thu 02:53:55 AM 45.2990 -2.8980 215° Southwest 439 505 30,000  Level FlightAware ADS-B
Thu 02:54:32 AM 45.3510 -2.8460 35° Northeast 439 505 30,000  Level FlightAware ADS-B
Thu 02:55:06 AM 45.3990 -2.7980 35° Northeast 439 505 30,000  Level FlightAware ADS-B
Thu 02:55:35 AM 45.5970 -2.5910 36° Northeast 438 504 30,000  Level FlightAware ADS-B
Thu 02:56:16 AM 45.6660 -2.5200 36° Northeast 438 504 30,000  Level FlightAware ADS-B
Thu 02:56:57 AM 45.7370 -2.4450 36° Northeast 436 502 30,000  Level FlightAware ADS-B
Thu 02:57:29 AM 45.7900 -2.3910 35° Northeast 436 502 30,000  Level FlightAware ADS-B
Thu 02:58:03 AM 45.8460 -2.3330 36° Northeast 436 502 30,000  Level FlightAware ADS-B
Thu 02:58:39 AM 45.9040 -2.2710 37° Northeast 436 502 30,000  Level FlightAware ADS-B
Thu 02:59:16 AM 45.9630 -2.2090 36° Northeast 437 503 30,000  Level FlightAware ADS-B
Thu 02:59:49 AM 46.0180 -2.1510 36° Northeast 438 504 30,000  Level FlightAware ADS-B
Thu 03:00:23 AM 46.0740 -2.0920 36° Northeast 438 504 30,000  Level FlightAware ADS-B
Thu 03:00:59 AM 46.1340 -2.0280 36° Northeast 439 505 30,000  Level FlightAware ADS-B
Thu 03:01:37 AM 46.1960 -1.9620 36° Northeast 439 505 30,000  Level FlightAware ADS-B
Thu 03:02:13 AM 46.2550 -1.8990 36° Northeast 440 506 30,000  Level FlightAware ADS-B
Thu 03:02:43 AM 46.3030 -1.8490 36° Northeast 440 506 30,000  Level FlightAware ADS-B
Thu 03:03:18 AM 46.3610 -1.7870 36° Northeast 441 507 30,000  Level FlightAware ADS-B
Thu 03:03:56 AM 46.4240 -1.7190 37° Northeast 442 509 30,000  Level FlightAware ADS-B
Thu 03:04:32 AM 46.4840 -1.6550 36° Northeast 443 510 30,000  Level FlightAware ADS-B
Thu 03:05:04 AM 46.5340 -1.6000 37° Northeast 443 510 30,000  Level FlightAware ADS-B
Thu 03:05:42 AM 46.5980 -1.5320 36° Northeast 444 511 30,000  Level FlightAware ADS-B
Thu 03:06:08 AM 46.6400 -1.4850 38° Northeast 444 511 30,000  Level FlightAware ADS-B
Thu 03:06:46 AM 46.7030 -1.4160 37° Northeast 444 511 30,000  Level FlightAware ADS-B
Thu 03:07:19 AM 46.7570 -1.3580 36° Northeast 445 512 30,000  Level FlightAware ADS-B
Thu 03:07:54 AM 46.8160 -1.2940 37° Northeast 445 512 30,000  Level FlightAware ADS-B
Thu 03:08:31 AM 46.8740 -1.2300 37° Northeast 445 512 30,000  Level FlightAware ADS-B
Thu 03:09:06 AM 46.9350 -1.1630 37° Northeast 446 513 30,000  Level FlightAware ADS-B
Thu 03:09:36 AM 46.9840 -1.1090 37° Northeast 447 514 30,000  Level FlightAware ADS-B
Thu 03:10:08 AM 47.0350 -1.0530 37° Northeast 447 514 30,000  Level FlightAware ADS-B
Thu 03:10:44 AM 47.0950 -0.9870 37° Northeast 448 516 30,000  Level FlightAware ADS-B
Thu 03:11:03 AM 47.1250 -0.9540 37° Northeast 448 516 30,000  Level FlightAware ADS-B
Thu 03:11:54 AM 47.2120 -0.8560 37° Northeast 451 519 30,000  Level FlightAware ADS-B
Thu 03:12:30 AM 47.2710 -0.7910 37° Northeast 451 519 30,000  Level FlightAware ADS-B
Thu 03:13:02 AM 47.3240 -0.7310 37° Northeast 452 520 30,000  Level FlightAware ADS-B
Thu 03:13:38 AM 47.3840 -0.6640 37° Northeast 453 521 30,000  Level FlightAware ADS-B
Thu 03:14:10 AM 47.4390 -0.6020 37° Northeast 453 521 30,000  Level FlightAware ADS-B
Thu 03:14:48 AM 47.5020 -0.5300 38° Northeast 455 524 30,000  Level FlightAware ADS-B
Thu 03:15:25 AM 47.5620 -0.4620 37° Northeast 455 524 30,000  Level FlightAware ADS-B
Thu 03:15:56 AM 47.6150 -0.4030 37° Northeast 455 524 30,000  Level FlightAware ADS-B
Thu 03:16:32 AM 47.6750 -0.3350 37° Northeast 455 524 30,000  Level FlightAware ADS-B
Thu 03:17:08 AM 47.7340 -0.2660 38° Northeast 455 524 30,000  Level FlightAware ADS-B
Thu 03:17:43 AM 47.7930 -0.1990 37° Northeast 456 525 30,000  Level FlightAware ADS-B
Thu 03:18:21 AM 47.8550 -0.1280 38° Northeast 456 525 30,000  Level FlightAware ADS-B
Thu 03:18:52 AM 47.9080 -0.0670 38° Northeast 456 525 30,000  Level FlightAware ADS-B
Thu 03:19:28 AM 47.9680 0.0030 38° Northeast 456 525 30,000  Level FlightAware ADS-B
Thu 03:20:04 AM 48.0280 0.0730 38° Northeast 458 527 30,000  Level FlightAware ADS-B
Thu 03:20:38 AM 48.0850 0.1390 38° Northeast 458 527 30,000  Level FlightAware ADS-B
Thu 03:21:20 AM 48.1530 0.2180 38° Northeast 457 526 30,000  Level FlightAware ADS-B
Thu 03:21:58 AM 48.2250 0.2770 29° Northeast 456 525 30,000  Level FlightAware ADS-B
Thu 03:22:30 AM 48.2840 0.3230 27° Northeast 456 525 30,000  Level FlightAware ADS-B
Thu 03:23:06 AM 48.3500 0.3750 28° Northeast 456 525 30,000  Level FlightAware ADS-B
Thu 03:23:43 AM 48.4240 0.4320 27° Northeast 457 526 30,000  Level FlightAware ADS-B
Thu 03:24:12 AM 48.4720 0.4730 30° Northeast 458 527 30,000  Level FlightAware ADS-B
Thu 03:24:52 AM 48.5390 0.5610 41° Northeast 460 529 30,000  Level FlightAware ADS-B
Thu 03:25:25 AM 48.5920 0.6340 42° Northeast 460 529 30,000  Level FlightAware ADS-B
Thu 03:26:06 AM 48.6540 0.7190 42° Northeast 460 529 30,000  Level FlightAware ADS-B
Thu 03:26:44 AM 48.7140 0.8010 42° Northeast 461 531 30,000  Level FlightAware ADS-B
Thu 03:27:16 AM 48.7650 0.8710 42° Northeast 462 532 30,000  Level FlightAware ADS-B
Thu 03:27:19 AM 48.7707 0.8809 42° Northeast 474 545 30,000  Level FlightAware UK
Thu 03:27:49 AM 48.8179 0.9468 42° Northeast 474 545 30,000  Level FlightAware UK
Thu 03:27:53 AM 48.8210 0.9500 42° Northeast 462 532 30,000  Level FlightAware ADS-B
Thu 03:28:28 AM 48.8800 1.0310 42° Northeast 464 534 30,000  Level FlightAware ADS-B
Thu 03:29:02 AM 48.9340 1.1060 42° Northeast 464 534 30,000  Level FlightAware ADS-B
Thu 03:29:38 AM 48.9910 1.1860 43° Northeast 465 535 30,000  Level FlightAware ADS-B
Thu 03:30:14 AM 49.0480 1.2680 43° Northeast 465 535 30,000  Level FlightAware ADS-B
Thu 03:30:44 AM 49.0950 1.3320 42° Northeast 465 535 30,000  Level FlightAware ADS-B
Thu 03:31:24 AM 49.1570 1.4220 43° Northeast 466 536 30,000  Level FlightAware ADS-B
Thu 03:31:58 AM 49.2110 1.4960 42° Northeast 466 536 30,000  Level FlightAware ADS-B
Thu 03:32:30 AM 49.2600 1.5650 43° Northeast 466 536 30,000  Level FlightAware ADS-B
Thu 03:33:06 AM 49.3160 1.6450 43° Northeast 466 536 30,000  Level FlightAware ADS-B
Thu 03:33:38 AM 49.3770 1.7070 33° Northeast 465 535 30,000  Level FlightAware ADS-B
Thu 03:34:16 AM 49.4470 1.7760 33° Northeast 465 535 30,000  Level FlightAware ADS-B
Thu 03:34:50 AM 49.4970 1.8270 34° Northeast 466 536 30,000  Level FlightAware ADS-B
Thu 03:35:28 AM 49.5770 1.9080 33° Northeast 467 537 30,000  Level FlightAware ADS-B
Thu 03:36:04 AM 49.6410 1.9720 33° Northeast 468 539 30,000  Level FlightAware ADS-B
Thu 03:36:36 AM 49.7000 2.0310 33° Northeast 469 540 30,000  Level FlightAware ADS-B
Thu 03:37:13 AM 49.7640 2.0970 34° Northeast 468 539 30,000  Level FlightAware ADS-B
Thu 03:37:43 AM 49.8216 2.1577 34° Northeast 474 545 30,000  Level FlightAware UK
Thu 03:37:44 AM 49.8200 2.1550 34° Northeast 469 540 30,000  Level FlightAware ADS-B
Thu 03:38:20 AM 49.8880 2.2230 33° Northeast 469 540 30,000  Level FlightAware ADS-B
Thu 03:38:55 AM 49.9518 2.2913 33° Northeast 476 548 30,000  Level FlightAware UK
Thu 03:39:06 AM 49.9690 2.3070 33° Northeast 468 539 30,000  Level FlightAware ADS-B
Thu 03:39:40 AM 50.0320 2.3720 34° Northeast 467 537 30,000  Level FlightAware ADS-B
Thu 03:40:14 AM 50.0930 2.4350 34° Northeast 467 537 30,000 -88 Level FlightAware ADS-B
Thu 03:40:48 AM 50.1520 2.4970 34° Northeast 465 535 29,900 -583 Descending FlightAware ADS-B
Thu 03:41:26 AM 50.2190 2.5660 33° Northeast 466 536 29,300 -1,000 Descending FlightAware ADS-B
Thu 03:42:00 AM 50.2800 2.6320 35° Northeast 469 540 28,700 -1,015 Descending FlightAware ADS-B
Thu 03:42:31 AM 50.3399 2.6942 35° Northeast 474 545 28,200 -1,000 Descending FlightAware UK
Thu 03:42:36 AM 50.3480 2.7020 35° Northeast 472 543 28,100 -364 Descending FlightAware ADS-B
Thu 03:43:04 AM 50.3990 2.7560 34° Northeast 473 544 28,000 -100 Descending FlightAware ADS-B
Thu 03:43:36 AM 50.4570 2.8170 34° Northeast 472 543 28,000  Level FlightAware ADS-B
Thu 03:44:12 AM 50.5180 2.8820 34° Northeast 472 543 28,000  Level FlightAware ADS-B
Thu 03:44:50 AM 50.5910 2.9530 32° Northeast 469 540 28,000  Level FlightAware ADS-B
Thu 03:45:20 AM 50.6510 3.0000 26° Northeast 468 539 28,000 -277 Level FlightAware ADS-B
Thu 03:45:55 AM 50.7170 3.0520 27° Northeast 470 541 27,700 -720 Descending FlightAware ADS-B
Thu 03:46:35 AM 50.7920 3.1110 26° Northeast 471 542 27,100 -973 Descending FlightAware ADS-B
Thu 03:47:09 AM 50.8580 3.1640 27° Northeast 470 541 26,500 -1,083 Descending FlightAware ADS-B
Thu 03:47:47 AM 50.9340 3.2230 27° Northeast 466 536 25,800 -1,200 Descending FlightAware ADS-B
Thu 03:47:49 AM 50.9428 3.2303 27° Northeast 470 541 25,700 -1,029 Descending FlightAware UK
Thu 03:48:22 AM 50.9990 3.2750 27° Northeast 455 524 25,200 -1,000 Descending FlightAware ADS-B
Thu 03:48:25 AM 51.0122 3.2852 27° Northeast 466 536 25,100 -1,091 Descending FlightAware UK
Thu 03:48:55 AM 51.0694 3.3305 27° Northeast 462 532 24,600 -973 Descending FlightAware UK
Thu 03:49:02 AM 51.0780 3.3370 27° Northeast 449 517 24,500 -947 Descending FlightAware ADS-B
Thu 03:49:33 AM 51.1340 3.3810 26° Northeast 451 519 24,000 -971 Descending FlightAware ADS-B
Thu 03:50:10 AM 51.2050 3.4450 29° Northeast 447 514 23,400 -1,040 Descending FlightAware ADS-B
Thu 03:50:48 AM 51.2720 3.5100 31° Northeast 444 511 22,700 -1,083 Descending FlightAware ADS-B
Thu 03:51:22 AM 51.3320 3.5670 31° Northeast 440 506 22,100 -1,273 Descending FlightAware ADS-B
Thu 03:51:54 AM 51.3870 3.6200 31° Northeast 431 496 21,300 -2,087 Descending FlightAware ADS-B
Thu 03:52:31 AM 51.4490 3.6800 31° Northeast 421 484 19,700 -2,595 Descending FlightAware ADS-B
Thu 03:53:08 AM 51.5120 3.7410 31° Northeast 413 475 18,100 -2,486 Descending FlightAware ADS-B
Thu 03:53:41 AM 51.5620 3.7890 31° Northeast 405 466 16,800 -2,471 Descending FlightAware ADS-B
Thu 03:54:16 AM 51.6210 3.8460 31° Northeast 395 455 15,300 -2,522 Descending FlightAware ADS-B
Thu 03:54:50 AM 51.6740 3.8970 31° Northeast 388 447 13,900 -2,382 Descending FlightAware ADS-B
Thu 03:55:24 AM 51.7250 3.9480 32° Northeast 379 436 12,600 -2,333 Descending FlightAware ADS-B
Thu 03:56:02 AM 51.7790 4.0000 31° Northeast 371 427 11,100 -1,541 Descending FlightAware ADS-B
Thu 03:56:38 AM 51.8330 4.0530 31° Northeast 376 433 10,700 -529 Descending FlightAware ADS-B
Thu 03:57:10 AM 51.8800 4.0990 31° Northeast 378 435 10,500 -441 Descending FlightAware ADS-B
Thu 03:57:46 AM 51.9310 4.1580 35° Northeast 379 436 10,200 -514 Descending FlightAware ADS-B
Thu 03:58:20 AM 51.9750 4.2230 42° Northeast 356 410 9,900 -517 Descending FlightAware ADS-B
Thu 03:58:44 AM 52.0040 4.2640 41° Northeast 334 384 9,700 -409 Descending FlightAware ADS-B
Thu 03:59:04 AM 52.0260 4.2970 43° Northeast 315 362 9,600 -316 Descending FlightAware ADS-B
Thu 03:59:22 AM 52.0440 4.3240 43° Northeast 301 346 9,500 -667 Descending FlightAware ADS-B
Thu 03:59:40 AM 52.0630 4.3510 41° Northeast 295 339 9,200 -1,029 Descending FlightAware ADS-B
Thu 03:59:57 AM 52.0800 4.3770 43° Northeast 292 336 8,900 -878 Descending FlightAware ADS-B
Thu 04:00:21 AM 52.1050 4.4140 42° Northeast 290 334 8,600 -818 Descending FlightAware ADS-B
Thu 04:00:41 AM 52.1240 4.4420 42° Northeast 288 331 8,300 -833 Descending FlightAware ADS-B
Thu 04:00:57 AM 52.1400 4.4670 44° Northeast 287 330 8,100 -706 Descending FlightAware ADS-B
Thu 04:01:15 AM 52.1580 4.4940 43° Northeast 287 330 7,900 -750 Descending FlightAware ADS-B
Thu 04:01:29 AM 52.1710 4.5140 43° Northeast 287 330 7,700 -789 Descending FlightAware ADS-B
Thu 04:01:53 AM 52.1940 4.5480 42° Northeast 286 329 7,400 -818 Descending FlightAware ADS-B
Thu 04:02:13 AM 52.2130 4.5770 43° Northeast 284 327 7,100 -667 Descending FlightAware ADS-B
Thu 04:02:29 AM 52.2290 4.6020 44° Northeast 282 325 7,000 -154 Descending FlightAware ADS-B
Thu 04:02:52 AM 52.2490 4.6320 43° Northeast 280 322 7,000  Level FlightAware ADS-B
Thu 04:03:10 AM 52.2670 4.6570 40° Northeast 279 321 7,000 -947 Level FlightAware ADS-B
Thu 04:03:30 AM 52.2860 4.6860 43° Northeast 286 329 6,400 -1,800 Descending FlightAware ADS-B
Thu 04:03:50 AM 52.3050 4.7130 41° Northeast 289 333 5,800 -1,579 Descending FlightAware ADS-B
Thu 04:04:08 AM 52.3240 4.7410 42° Northeast 287 330 5,400 -1,412 Descending FlightAware ADS-B
Thu 04:04:24 AM 52.3400 4.7620 39° Northeast 285 328 5,000 -1,333 Descending FlightAware ADS-B
Thu 04:04:44 AM 52.3600 4.7920 42° Northeast 283 326 4,600 -1,467 Descending FlightAware ADS-B
Thu 04:05:09 AM 52.3890 4.8150 26° Northeast 277 319 3,900 -1,448 Descending FlightAware ADS-B
Thu 04:05:13 AM 52.3950 4.8160 North 276 318 3,900 -632 Level FlightAware ADS-B
Thu 04:05:28 AM 52.4140 4.8170 North 264 304 3,700 -364 Descending FlightAware ADS-B
Thu 04:05:46 AM 52.4330 4.8180 North 244 281 3,700 -308 Level FlightAware ADS-B
Thu 04:06:07 AM 52.4570 4.8200 North 223 257 3,500 -682 Descending FlightAware ADS-B
Thu 04:06:30 AM 52.4760 4.8050 334° Northwest 199 229 3,200 -968 Descending FlightAware ADS-B
Thu 04:06:38 AM 52.4790 4.7940 294° West 193 222 3,000 -1,286 Descending FlightAware ADS-B
Thu 04:06:44 AM 52.4800 4.7860 282° West 191 220 2,900 -1,556 Descending FlightAware ADS-B
Thu 04:07:05 AM 52.4730 4.7570 248° West 186 214 2,300 -1,920 Descending FlightAware ADS-B
Thu 04:07:09 AM 52.4700 4.7520 225° Southwest 186 214 2,100 -1,742 Descending FlightAware ADS-B
Thu 04:07:36 AM 52.4540 4.7310 219° Southwest 180 207 1,400 -1,371 Descending FlightAware ADS-B
Thu 04:07:44 AM 52.4470 4.7240 211° Southwest 170 196 1,300 -667 Descending FlightAware ADS-B
Thu 04:07:54 AM 52.4390 4.7190 201° Southwest 161 185 1,200 -600 Descending FlightAware ADS-B
Thu 04:08:04 AM 52.4320 4.7180 185° South 159 183 1,100 -514 Descending FlightAware ADS-B
Thu 04:08:29 AM 52.4140 4.7170 182° South 157 181 900 -800 Descending FlightAware ADS-B
Thu 04:08:49 AM 52.3990 4.7150 185° South 162 186 500 -900 Descending FlightAware ADS-B
Thu 04:09:09 AM 52.3840 4.7140 182° South 158 182 300 -600 Descending FlightAware ADS-B
Thu 04:09:29 AM 52.3700 4.7130 182° South 157 181 -900 Descending FlightAware ADS-B
Thu 04:09:49 AM 52.3560 4.7110 185° South 153 176  Level FlightAware ADS-B
Thu 04:10:09 AM 52.3440 4.7100 183° South 100 115  Level FlightAware ADS-B

Login

Don't have an account? Register now (free) for customized features, flight alerts, and more!